sensor_id;sensor_type;location;lat;lon;timestamp;P1;durP1;ratioP1;P2;durP2;ratioP2
8337;SDS011;4206;48.634;9.516;2023-04-07T00:01:28;10.97;;;6.43;;
8337;SDS011;4206;48.634;9.516;2023-04-07T00:03:55;12.20;;;6.83;;
8337;SDS011;4206;48.634;9.516;2023-04-07T00:06:23;9.90;;;5.50;;
8337;SDS011;4206;48.634;9.516;2023-04-07T00:08:49;7.23;;;5.40;;
8337;SDS011;4206;48.634;9.516;2023-04-07T00:11:17;12.73;;;5.43;;
8337;SDS011;4206;48.634;9.516;2023-04-07T00:13:44;8.33;;;5.33;;
8337;SDS011;4206;48.634;9.516;2023-04-07T00:16:11;8.83;;;6.40;;
8337;SDS011;4206;48.634;9.516;2023-04-07T00:18:38;9.50;;;6.17;;
8337;SDS011;4206;48.634;9.516;2023-04-07T00:21:04;8.30;;;5.07;;
8337;SDS011;4206;48.634;9.516;2023-04-07T00:23:31;13.47;;;6.00;;
8337;SDS011;4206;48.634;9.516;2023-04-07T00:25:58;8.30;;;5.70;;
8337;SDS011;4206;48.634;9.516;2023-04-07T00:28:26;6.67;;;5.17;;
8337;SDS011;4206;48.634;9.516;2023-04-07T00:30:52;8.93;;;6.03;;
8337;SDS011;4206;48.634;9.516;2023-04-07T00:33:19;9.53;;;5.93;;
8337;SDS011;4206;48.634;9.516;2023-04-07T00:35:46;8.90;;;6.10;;
8337;SDS011;4206;48.634;9.516;2023-04-07T00:38:13;8.33;;;5.63;;
8337;SDS011;4206;48.634;9.516;2023-04-07T00:40:40;8.77;;;5.60;;
8337;SDS011;4206;48.634;9.516;2023-04-07T00:43:06;7.90;;;5.20;;
8337;SDS011;4206;48.634;9.516;2023-04-07T00:45:33;8.40;;;5.87;;
8337;SDS011;4206;48.634;9.516;2023-04-07T00:48:01;7.43;;;5.60;;
8337;SDS011;4206;48.634;9.516;2023-04-07T00:50:29;11.47;;;5.57;;
8337;SDS011;4206;48.634;9.516;2023-04-07T00:52:56;8.63;;;5.77;;
8337;SDS011;4206;48.634;9.516;2023-04-07T00:55:23;11.27;;;5.30;;
8337;SDS011;4206;48.634;9.516;2023-04-07T00:57:50;8.70;;;6.10;;
8337;SDS011;4206;48.634;9.516;2023-04-07T01:00:17;8.60;;;6.07;;
8337;SDS011;4206;48.634;9.516;2023-04-07T01:13:14;9.03;;;6.43;;
8337;SDS011;4206;48.634;9.516;2023-04-07T01:15:50;8.83;;;5.67;;
8337;SDS011;4206;48.634;9.516;2023-04-07T01:18:25;8.43;;;5.03;;
8337;SDS011;4206;48.634;9.516;2023-04-07T01:20:59;7.40;;;5.33;;
8337;SDS011;4206;48.634;9.516;2023-04-07T01:23:35;8.03;;;5.23;;
8337;SDS011;4206;48.634;9.516;2023-04-07T01:26:22;7.17;;;5.50;;
8337;SDS011;4206;48.634;9.516;2023-04-07T01:31:38;9.70;;;5.40;;
8337;SDS011;4206;48.634;9.516;2023-04-07T01:34:09;8.40;;;6.00;;
8337;SDS011;4206;48.634;9.516;2023-04-07T01:36:37;8.83;;;6.10;;
8337;SDS011;4206;48.634;9.516;2023-04-07T01:39:05;8.20;;;5.73;;
8337;SDS011;4206;48.634;9.516;2023-04-07T01:41:33;10.80;;;6.07;;
8337;SDS011;4206;48.634;9.516;2023-04-07T01:44:03;7.70;;;5.60;;
8337;SDS011;4206;48.634;9.516;2023-04-07T01:46:31;9.50;;;6.60;;
8337;SDS011;4206;48.634;9.516;2023-04-07T01:48:59;11.80;;;6.20;;
8337;SDS011;4206;48.634;9.516;2023-04-07T01:51:26;10.03;;;5.27;;
8337;SDS011;4206;48.634;9.516;2023-04-07T01:53:56;8.70;;;6.23;;
8337;SDS011;4206;48.634;9.516;2023-04-07T01:56:24;9.70;;;6.47;;
8337;SDS011;4206;48.634;9.516;2023-04-07T01:58:51;9.50;;;6.53;;
8337;SDS011;4206;48.634;9.516;2023-04-07T02:01:18;12.37;;;7.13;;
8337;SDS011;4206;48.634;9.516;2023-04-07T02:03:48;9.23;;;5.73;;
8337;SDS011;4206;48.634;9.516;2023-04-07T02:06:22;12.20;;;5.43;;
8337;SDS011;4206;48.634;9.516;2023-04-07T02:08:54;9.47;;;6.27;;
8337;SDS011;4206;48.634;9.516;2023-04-07T02:11:25;8.57;;;6.20;;
8337;SDS011;4206;48.634;9.516;2023-04-07T02:13:54;10.50;;;6.87;;
8337;SDS011;4206;48.634;9.516;2023-04-07T02:16:22;8.17;;;6.30;;
8337;SDS011;4206;48.634;9.516;2023-04-07T02:18:51;8.33;;;6.63;;
8337;SDS011;4206;48.634;9.516;2023-04-07T02:21:19;8.23;;;6.10;;
8337;SDS011;4206;48.634;9.516;2023-04-07T02:23:48;10.23;;;6.53;;
8337;SDS011;4206;48.634;9.516;2023-04-07T02:26:15;10.33;;;6.13;;
8337;SDS011;4206;48.634;9.516;2023-04-07T02:28:41;10.33;;;6.50;;
8337;SDS011;4206;48.634;9.516;2023-04-07T02:31:08;10.10;;;6.63;;
8337;SDS011;4206;48.634;9.516;2023-04-07T02:33:36;12.07;;;6.23;;
8337;SDS011;4206;48.634;9.516;2023-04-07T02:36:03;17.57;;;7.50;;
8337;SDS011;4206;48.634;9.516;2023-04-07T02:38:30;11.40;;;7.07;;
8337;SDS011;4206;48.634;9.516;2023-04-07T02:40:57;8.90;;;6.50;;
8337;SDS011;4206;48.634;9.516;2023-04-07T02:43:24;9.50;;;6.73;;
8337;SDS011;4206;48.634;9.516;2023-04-07T02:45:51;10.80;;;7.03;;
8337;SDS011;4206;48.634;9.516;2023-04-07T02:48:18;12.60;;;6.47;;
8337;SDS011;4206;48.634;9.516;2023-04-07T02:50:45;11.30;;;6.50;;
8337;SDS011;4206;48.634;9.516;2023-04-07T02:53:12;11.33;;;6.63;;
8337;SDS011;4206;48.634;9.516;2023-04-07T02:55:39;10.90;;;7.03;;
8337;SDS011;4206;48.634;9.516;2023-04-07T02:58:06;13.13;;;7.00;;
8337;SDS011;4206;48.634;9.516;2023-04-07T04:01:13;9.07;;;6.40;;
8337;SDS011;4206;48.634;9.516;2023-04-07T04:03:40;9.80;;;6.80;;
8337;SDS011;4206;48.634;9.516;2023-04-07T04:06:07;11.53;;;6.33;;
8337;SDS011;4206;48.634;9.516;2023-04-07T04:08:34;12.40;;;7.20;;
8337;SDS011;4206;48.634;9.516;2023-04-07T04:11:01;10.70;;;6.50;;
8337;SDS011;4206;48.634;9.516;2023-04-07T04:13:27;8.67;;;6.53;;
8337;SDS011;4206;48.634;9.516;2023-04-07T04:15:54;11.27;;;6.30;;
8337;SDS011;4206;48.634;9.516;2023-04-07T04:18:21;13.53;;;6.70;;
8337;SDS011;4206;48.634;9.516;2023-04-07T04:20:48;9.43;;;6.77;;
8337;SDS011;4206;48.634;9.516;2023-04-07T04:23:15;10.23;;;7.40;;
8337;SDS011;4206;48.634;9.516;2023-04-07T04:25:42;12.63;;;7.90;;
8337;SDS011;4206;48.634;9.516;2023-04-07T04:28:09;21.87;;;13.17;;
8337;SDS011;4206;48.634;9.516;2023-04-07T04:30:36;18.37;;;11.77;;
8337;SDS011;4206;48.634;9.516;2023-04-07T04:33:02;15.23;;;9.20;;
8337;SDS011;4206;48.634;9.516;2023-04-07T04:35:30;14.40;;;8.40;;
8337;SDS011;4206;48.634;9.516;2023-04-07T04:37:56;11.53;;;7.90;;
8337;SDS011;4206;48.634;9.516;2023-04-07T04:40:23;13.27;;;8.63;;
8337;SDS011;4206;48.634;9.516;2023-04-07T04:42:50;12.27;;;9.10;;
8337;SDS011;4206;48.634;9.516;2023-04-07T04:45:17;10.43;;;7.87;;
8337;SDS011;4206;48.634;9.516;2023-04-07T04:47:44;9.97;;;7.00;;
8337;SDS011;4206;48.634;9.516;2023-04-07T04:50:11;10.80;;;8.03;;
8337;SDS011;4206;48.634;9.516;2023-04-07T04:52:38;11.33;;;7.47;;
8337;SDS011;4206;48.634;9.516;2023-04-07T04:55:05;12.27;;;7.73;;
8337;SDS011;4206;48.634;9.516;2023-04-07T04:57:33;12.70;;;8.00;;
8337;SDS011;4206;48.634;9.516;2023-04-07T05:00:01;12.30;;;8.60;;
8337;SDS011;4206;48.634;9.516;2023-04-07T05:02:29;11.93;;;7.97;;
8337;SDS011;4206;48.634;9.516;2023-04-07T05:04:56;12.43;;;8.90;;
8337;SDS011;4206;48.634;9.516;2023-04-07T05:07:24;13.03;;;8.47;;
8337;SDS011;4206;48.634;9.516;2023-04-07T05:09:51;13.53;;;9.03;;
8337;SDS011;4206;48.634;9.516;2023-04-07T05:12:18;12.93;;;8.80;;
8337;SDS011;4206;48.634;9.516;2023-04-07T05:14:44;14.70;;;9.60;;
8337;SDS011;4206;48.634;9.516;2023-04-07T05:17:11;20.90;;;9.30;;
8337;SDS011;4206;48.634;9.516;2023-04-07T05:19:38;15.13;;;8.53;;
8337;SDS011;4206;48.634;9.516;2023-04-07T05:22:05;13.73;;;8.90;;
8337;SDS011;4206;48.634;9.516;2023-04-07T05:24:32;14.00;;;9.00;;
8337;SDS011;4206;48.634;9.516;2023-04-07T05:26:59;11.90;;;8.20;;
8337;SDS011;4206;48.634;9.516;2023-04-07T05:29:27;14.20;;;9.23;;
8337;SDS011;4206;48.634;9.516;2023-04-07T05:31:53;14.40;;;9.27;;
8337;SDS011;4206;48.634;9.516;2023-04-07T05:34:20;14.37;;;9.30;;
8337;SDS011;4206;48.634;9.516;2023-04-07T05:36:47;13.57;;;8.80;;
8337;SDS011;4206;48.634;9.516;2023-04-07T05:39:14;13.37;;;9.70;;
8337;SDS011;4206;48.634;9.516;2023-04-07T05:41:41;18.60;;;10.30;;
8337;SDS011;4206;48.634;9.516;2023-04-07T05:44:07;14.17;;;9.20;;
8337;SDS011;4206;48.634;9.516;2023-04-07T05:46:34;14.83;;;9.77;;
8337;SDS011;4206;48.634;9.516;2023-04-07T05:49:01;14.03;;;9.80;;
8337;SDS011;4206;48.634;9.516;2023-04-07T05:51:45;14.67;;;9.83;;
8337;SDS011;4206;48.634;9.516;2023-04-07T05:54:14;14.67;;;8.30;;
8337;SDS011;4206;48.634;9.516;2023-04-07T05:56:41;18.20;;;10.50;;
8337;SDS011;4206;48.634;9.516;2023-04-07T05:59:08;11.70;;;8.40;;
8337;SDS011;4206;48.634;9.516;2023-04-07T06:01:35;12.20;;;8.47;;
8337;SDS011;4206;48.634;9.516;2023-04-07T06:04:02;12.00;;;8.40;;
8337;SDS011;4206;48.634;9.516;2023-04-07T06:06:29;13.93;;;8.90;;
8337;SDS011;4206;48.634;9.516;2023-04-07T06:08:56;15.67;;;8.80;;
8337;SDS011;4206;48.634;9.516;2023-04-07T06:11:24;12.47;;;8.20;;
8337;SDS011;4206;48.634;9.516;2023-04-07T06:13:51;13.13;;;9.07;;
8337;SDS011;4206;48.634;9.516;2023-04-07T06:16:18;14.43;;;9.87;;
8337;SDS011;4206;48.634;9.516;2023-04-07T06:18:45;11.17;;;8.00;;
8337;SDS011;4206;48.634;9.516;2023-04-07T06:21:12;14.10;;;8.80;;
8337;SDS011;4206;48.634;9.516;2023-04-07T06:23:39;16.67;;;9.77;;
8337;SDS011;4206;48.634;9.516;2023-04-07T06:26:09;10.20;;;7.90;;
8337;SDS011;4206;48.634;9.516;2023-04-07T06:28:37;12.70;;;9.33;;
8337;SDS011;4206;48.634;9.516;2023-04-07T06:31:04;12.90;;;8.90;;
8337;SDS011;4206;48.634;9.516;2023-04-07T06:33:34;13.27;;;8.60;;
8337;SDS011;4206;48.634;9.516;2023-04-07T06:36:01;15.20;;;8.87;;
8337;SDS011;4206;48.634;9.516;2023-04-07T06:38:28;13.43;;;8.67;;
8337;SDS011;4206;48.634;9.516;2023-04-07T06:40:54;12.60;;;8.27;;
8337;SDS011;4206;48.634;9.516;2023-04-07T06:43:21;15.70;;;9.20;;
8337;SDS011;4206;48.634;9.516;2023-04-07T06:45:48;13.77;;;9.50;;
8337;SDS011;4206;48.634;9.516;2023-04-07T06:48:15;12.73;;;8.43;;
8337;SDS011;4206;48.634;9.516;2023-04-07T06:50:45;12.23;;;9.03;;
8337;SDS011;4206;48.634;9.516;2023-04-07T06:53:12;13.57;;;9.53;;
8337;SDS011;4206;48.634;9.516;2023-04-07T06:55:39;12.50;;;8.77;;
8337;SDS011;4206;48.634;9.516;2023-04-07T06:58:06;13.80;;;8.50;;
8337;SDS011;4206;48.634;9.516;2023-04-07T07:00:33;12.00;;;8.53;;
8337;SDS011;4206;48.634;9.516;2023-04-07T07:03:01;14.80;;;8.70;;
8337;SDS011;4206;48.634;9.516;2023-04-07T07:05:28;11.27;;;8.27;;
8337;SDS011;4206;48.634;9.516;2023-04-07T07:07:55;11.50;;;8.30;;
8337;SDS011;4206;48.634;9.516;2023-04-07T07:10:22;10.70;;;7.80;;
8337;SDS011;4206;48.634;9.516;2023-04-07T07:12:49;9.83;;;7.03;;
8337;SDS011;4206;48.634;9.516;2023-04-07T07:15:16;12.90;;;8.17;;
8337;SDS011;4206;48.634;9.516;2023-04-07T07:17:43;12.53;;;7.97;;
8337;SDS011;4206;48.634;9.516;2023-04-07T07:20:10;8.50;;;6.73;;
8337;SDS011;4206;48.634;9.516;2023-04-07T07:22:37;15.47;;;9.97;;
8337;SDS011;4206;48.634;9.516;2023-04-07T07:25:04;12.97;;;8.37;;
8337;SDS011;4206;48.634;9.516;2023-04-07T07:27:31;11.27;;;7.50;;
8337;SDS011;4206;48.634;9.516;2023-04-07T07:29:58;9.03;;;6.60;;
8337;SDS011;4206;48.634;9.516;2023-04-07T07:32:25;9.10;;;7.00;;
8337;SDS011;4206;48.634;9.516;2023-04-07T07:34:52;7.77;;;6.30;;
8337;SDS011;4206;48.634;9.516;2023-04-07T07:37:19;9.53;;;5.87;;
8337;SDS011;4206;48.634;9.516;2023-04-07T07:39:46;8.13;;;6.50;;
8337;SDS011;4206;48.634;9.516;2023-04-07T07:42:13;8.10;;;5.43;;
8337;SDS011;4206;48.634;9.516;2023-04-07T07:44:40;9.17;;;6.00;;
8337;SDS011;4206;48.634;9.516;2023-04-07T07:47:07;8.03;;;6.20;;
8337;SDS011;4206;48.634;9.516;2023-04-07T07:49:34;8.20;;;5.87;;
8337;SDS011;4206;48.634;9.516;2023-04-07T07:52:00;6.80;;;5.20;;
8337;SDS011;4206;48.634;9.516;2023-04-07T07:54:27;8.53;;;5.40;;
8337;SDS011;4206;48.634;9.516;2023-04-07T07:56:54;9.47;;;5.47;;
8337;SDS011;4206;48.634;9.516;2023-04-07T07:59:21;6.97;;;5.10;;
8337;SDS011;4206;48.634;9.516;2023-04-07T08:01:48;7.37;;;4.80;;
8337;SDS011;4206;48.634;9.516;2023-04-07T08:04:15;10.20;;;5.50;;
8337;SDS011;4206;48.634;9.516;2023-04-07T08:06:42;6.63;;;5.23;;
8337;SDS011;4206;48.634;9.516;2023-04-07T08:09:09;6.90;;;4.73;;
8337;SDS011;4206;48.634;9.516;2023-04-07T08:11:37;6.80;;;4.90;;
8337;SDS011;4206;48.634;9.516;2023-04-07T08:14:04;11.27;;;8.60;;
8337;SDS011;4206;48.634;9.516;2023-04-07T08:16:33;6.97;;;4.83;;
8337;SDS011;4206;48.634;9.516;2023-04-07T08:19:01;7.13;;;4.00;;
8337;SDS011;4206;48.634;9.516;2023-04-07T08:21:28;6.77;;;4.57;;
8337;SDS011;4206;48.634;9.516;2023-04-07T08:23:54;4.40;;;3.90;;
8337;SDS011;4206;48.634;9.516;2023-04-07T08:26:21;5.73;;;4.10;;
8337;SDS011;4206;48.634;9.516;2023-04-07T08:28:48;6.07;;;4.90;;
8337;SDS011;4206;48.634;9.516;2023-04-07T08:31:16;5.07;;;3.60;;
8337;SDS011;4206;48.634;9.516;2023-04-07T08:33:44;5.00;;;4.13;;
8337;SDS011;4206;48.634;9.516;2023-04-07T08:36:12;4.97;;;4.13;;
8337;SDS011;4206;48.634;9.516;2023-04-07T08:38:40;8.03;;;6.53;;
8337;SDS011;4206;48.634;9.516;2023-04-07T08:41:10;9.13;;;6.77;;
8337;SDS011;4206;48.634;9.516;2023-04-07T08:43:38;6.67;;;3.90;;
8337;SDS011;4206;48.634;9.516;2023-04-07T08:46:08;5.60;;;4.70;;
8337;SDS011;4206;48.634;9.516;2023-04-07T08:48:36;6.03;;;4.63;;
8337;SDS011;4206;48.634;9.516;2023-04-07T08:51:04;4.83;;;4.00;;
8337;SDS011;4206;48.634;9.516;2023-04-07T08:53:35;3.93;;;3.53;;
8337;SDS011;4206;48.634;9.516;2023-04-07T08:56:10;5.60;;;3.60;;
8337;SDS011;4206;48.634;9.516;2023-04-07T08:58:38;6.70;;;3.67;;
8337;SDS011;4206;48.634;9.516;2023-04-07T09:01:05;4.23;;;3.73;;
8337;SDS011;4206;48.634;9.516;2023-04-07T09:03:34;7.60;;;5.80;;
8337;SDS011;4206;48.634;9.516;2023-04-07T09:06:01;4.23;;;3.37;;
8337;SDS011;4206;48.634;9.516;2023-04-07T09:08:29;4.97;;;3.20;;
8337;SDS011;4206;48.634;9.516;2023-04-07T09:10:56;3.83;;;3.10;;
8337;SDS011;4206;48.634;9.516;2023-04-07T09:13:23;8.73;;;4.90;;
8337;SDS011;4206;48.634;9.516;2023-04-07T09:15:51;4.53;;;3.27;;
8337;SDS011;4206;48.634;9.516;2023-04-07T09:18:18;5.13;;;3.57;;
8337;SDS011;4206;48.634;9.516;2023-04-07T09:23:36;4.50;;;3.60;;
8337;SDS011;4206;48.634;9.516;2023-04-07T09:28:49;10.17;;;6.57;;
8337;SDS011;4206;48.634;9.516;2023-04-07T09:34:26;13.87;;;7.77;;
8337;SDS011;4206;48.634;9.516;2023-04-07T09:36:54;8.60;;;3.97;;
8337;SDS011;4206;48.634;9.516;2023-04-07T09:39:22;5.60;;;3.30;;
8337;SDS011;4206;48.634;9.516;2023-04-07T09:41:49;5.73;;;3.57;;
8337;SDS011;4206;48.634;9.516;2023-04-07T09:44:17;7.03;;;4.80;;
8337;SDS011;4206;48.634;9.516;2023-04-07T09:46:49;13.77;;;6.43;;
8337;SDS011;4206;48.634;9.516;2023-04-07T09:49:19;4.60;;;3.13;;
8337;SDS011;4206;48.634;9.516;2023-04-07T09:54:35;5.83;;;2.60;;
8337;SDS011;4206;48.634;9.516;2023-04-07T09:57:03;9.00;;;3.23;;
8337;SDS011;4206;48.634;9.516;2023-04-07T09:59:32;8.77;;;5.53;;
8337;SDS011;4206;48.634;9.516;2023-04-07T10:02:00;8.80;;;5.30;;
8337;SDS011;4206;48.634;9.516;2023-04-07T10:04:28;26.70;;;14.97;;
8337;SDS011;4206;48.634;9.516;2023-04-07T10:06:56;8.23;;;4.63;;
8337;SDS011;4206;48.634;9.516;2023-04-07T10:09:26;6.93;;;3.57;;
8337;SDS011;4206;48.634;9.516;2023-04-07T10:11:54;8.40;;;3.90;;
8337;SDS011;4206;48.634;9.516;2023-04-07T10:14:26;6.00;;;3.90;;
8337;SDS011;4206;48.634;9.516;2023-04-07T10:16:56;6.00;;;3.80;;
8337;SDS011;4206;48.634;9.516;2023-04-07T10:19:28;9.10;;;3.67;;
8337;SDS011;4206;48.634;9.516;2023-04-07T10:21:58;7.03;;;3.90;;
8337;SDS011;4206;48.634;9.516;2023-04-07T10:27:14;7.10;;;3.90;;
8337;SDS011;4206;48.634;9.516;2023-04-07T10:29:45;5.17;;;3.50;;
8337;SDS011;4206;48.634;9.516;2023-04-07T10:32:15;8.37;;;4.83;;
8337;SDS011;4206;48.634;9.516;2023-04-07T10:37:19;5.67;;;3.13;;
8337;SDS011;4206;48.634;9.516;2023-04-07T10:39:47;5.03;;;2.97;;
8337;SDS011;4206;48.634;9.516;2023-04-07T10:45:08;3.57;;;2.90;;
8337;SDS011;4206;48.634;9.516;2023-04-07T10:50:26;7.73;;;4.40;;
8337;SDS011;4206;48.634;9.516;2023-04-07T10:55:39;5.70;;;3.77;;
8337;SDS011;4206;48.634;9.516;2023-04-07T11:03:33;5.03;;;3.20;;
8337;SDS011;4206;48.634;9.516;2023-04-07T11:08:33;6.80;;;4.30;;
8337;SDS011;4206;48.634;9.516;2023-04-07T11:11:02;4.70;;;4.30;;
8337;SDS011;4206;48.634;9.516;2023-04-07T11:16:10;4.90;;;4.33;;
8337;SDS011;4206;48.634;9.516;2023-04-07T11:18:37;5.67;;;4.07;;
8337;SDS011;4206;48.634;9.516;2023-04-07T11:21:05;6.50;;;4.30;;
8337;SDS011;4206;48.634;9.516;2023-04-07T11:23:37;5.33;;;4.20;;
8337;SDS011;4206;48.634;9.516;2023-04-07T11:26:08;7.87;;;4.20;;
8337;SDS011;4206;48.634;9.516;2023-04-07T11:28:44;7.27;;;4.10;;
8337;SDS011;4206;48.634;9.516;2023-04-07T11:31:20;5.80;;;3.83;;
8337;SDS011;4206;48.634;9.516;2023-04-07T11:33:56;7.47;;;4.03;;
8337;SDS011;4206;48.634;9.516;2023-04-07T11:38:56;6.53;;;3.20;;
8337;SDS011;4206;48.634;9.516;2023-04-07T11:41:24;6.57;;;3.73;;
8337;SDS011;4206;48.634;9.516;2023-04-07T11:46:36;5.87;;;3.80;;
8337;SDS011;4206;48.634;9.516;2023-04-07T11:49:22;5.63;;;3.40;;
8337;SDS011;4206;48.634;9.516;2023-04-07T11:51:56;4.93;;;2.90;;
8337;SDS011;4206;48.634;9.516;2023-04-07T11:54:25;4.70;;;3.20;;
8337;SDS011;4206;48.634;9.516;2023-04-07T11:56:52;5.20;;;3.73;;
8337;SDS011;4206;48.634;9.516;2023-04-07T11:59:22;4.43;;;3.10;;
8337;SDS011;4206;48.634;9.516;2023-04-07T12:01:50;5.43;;;3.27;;
8337;SDS011;4206;48.634;9.516;2023-04-07T12:04:22;5.27;;;3.40;;
8337;SDS011;4206;48.634;9.516;2023-04-07T12:06:49;6.07;;;2.90;;
8337;SDS011;4206;48.634;9.516;2023-04-07T12:11:54;4.00;;;3.30;;
8337;SDS011;4206;48.634;9.516;2023-04-07T12:14:23;4.63;;;3.30;;
8337;SDS011;4206;48.634;9.516;2023-04-07T12:16:50;4.77;;;3.10;;
8337;SDS011;4206;48.634;9.516;2023-04-07T12:19:22;7.30;;;3.60;;
8337;SDS011;4206;48.634;9.516;2023-04-07T12:21:49;7.50;;;3.40;;
8337;SDS011;4206;48.634;9.516;2023-04-07T12:24:16;4.90;;;2.77;;
8337;SDS011;4206;48.634;9.516;2023-04-07T12:26:43;6.87;;;3.80;;
8337;SDS011;4206;48.634;9.516;2023-04-07T12:29:10;5.47;;;3.40;;
8337;SDS011;4206;48.634;9.516;2023-04-07T12:31:37;3.00;;;2.30;;
8337;SDS011;4206;48.634;9.516;2023-04-07T12:34:04;5.47;;;3.20;;
8337;SDS011;4206;48.634;9.516;2023-04-07T12:36:31;4.63;;;2.50;;
8337;SDS011;4206;48.634;9.516;2023-04-07T12:38:58;3.43;;;2.47;;
8337;SDS011;4206;48.634;9.516;2023-04-07T12:41:25;4.67;;;1.93;;
8337;SDS011;4206;48.634;9.516;2023-04-07T12:43:52;4.23;;;2.30;;
8337;SDS011;4206;48.634;9.516;2023-04-07T12:46:19;4.70;;;2.03;;
8337;SDS011;4206;48.634;9.516;2023-04-07T12:48:47;4.30;;;2.40;;
8337;SDS011;4206;48.634;9.516;2023-04-07T12:51:14;4.70;;;2.13;;
8337;SDS011;4206;48.634;9.516;2023-04-07T12:53:41;3.73;;;2.40;;
8337;SDS011;4206;48.634;9.516;2023-04-07T12:56:08;6.97;;;2.50;;
8337;SDS011;4206;48.634;9.516;2023-04-07T12:58:35;4.67;;;2.20;;
8337;SDS011;4206;48.634;9.516;2023-04-07T13:01:02;5.07;;;2.57;;
8337;SDS011;4206;48.634;9.516;2023-04-07T13:03:29;4.40;;;2.20;;
8337;SDS011;4206;48.634;9.516;2023-04-07T13:05:57;2.90;;;1.77;;
8337;SDS011;4206;48.634;9.516;2023-04-07T13:08:26;3.20;;;2.07;;
8337;SDS011;4206;48.634;9.516;2023-04-07T13:10:54;3.83;;;2.20;;
8337;SDS011;4206;48.634;9.516;2023-04-07T13:13:22;3.00;;;1.80;;
8337;SDS011;4206;48.634;9.516;2023-04-07T13:15:50;6.60;;;2.63;;
8337;SDS011;4206;48.634;9.516;2023-04-07T13:18:17;5.23;;;2.23;;
8337;SDS011;4206;48.634;9.516;2023-04-07T13:20:44;5.10;;;2.00;;
8337;SDS011;4206;48.634;9.516;2023-04-07T13:23:31;4.10;;;2.20;;
8337;SDS011;4206;48.634;9.516;2023-04-07T13:26:08;2.10;;;1.37;;
8337;SDS011;4206;48.634;9.516;2023-04-07T13:28:35;5.20;;;1.27;;
8337;SDS011;4206;48.634;9.516;2023-04-07T13:31:01;3.40;;;1.50;;
8337;SDS011;4206;48.634;9.516;2023-04-07T13:33:28;4.53;;;2.70;;
8337;SDS011;4206;48.634;9.516;2023-04-07T13:35:56;5.73;;;2.37;;
8337;SDS011;4206;48.634;9.516;2023-04-07T13:38:22;7.57;;;3.20;;
8337;SDS011;4206;48.634;9.516;2023-04-07T13:40:49;5.47;;;3.47;;
8337;SDS011;4206;48.634;9.516;2023-04-07T13:43:16;9.90;;;4.03;;
8337;SDS011;4206;48.634;9.516;2023-04-07T13:45:44;5.30;;;3.37;;
8337;SDS011;4206;48.634;9.516;2023-04-07T13:48:12;5.57;;;3.50;;
8337;SDS011;4206;48.634;9.516;2023-04-07T13:50:39;6.47;;;3.80;;
8337;SDS011;4206;48.634;9.516;2023-04-07T13:53:06;6.47;;;4.47;;
8337;SDS011;4206;48.634;9.516;2023-04-07T13:55:33;13.70;;;4.57;;
8337;SDS011;4206;48.634;9.516;2023-04-07T13:58:00;10.77;;;5.17;;
8337;SDS011;4206;48.634;9.516;2023-04-07T14:00:26;6.00;;;3.33;;
8337;SDS011;4206;48.634;9.516;2023-04-07T14:02:53;4.47;;;3.50;;
8337;SDS011;4206;48.634;9.516;2023-04-07T14:05:21;7.43;;;3.17;;
8337;SDS011;4206;48.634;9.516;2023-04-07T14:07:50;8.90;;;3.20;;
8337;SDS011;4206;48.634;9.516;2023-04-07T14:10:16;5.37;;;3.43;;
8337;SDS011;4206;48.634;9.516;2023-04-07T14:12:43;8.20;;;3.10;;
8337;SDS011;4206;48.634;9.516;2023-04-07T14:15:10;6.47;;;3.67;;
8337;SDS011;4206;48.634;9.516;2023-04-07T14:17:37;6.00;;;3.00;;
8337;SDS011;4206;48.634;9.516;2023-04-07T14:20:04;7.50;;;3.27;;
8337;SDS011;4206;48.634;9.516;2023-04-07T14:22:31;4.83;;;3.23;;
8337;SDS011;4206;48.634;9.516;2023-04-07T14:24:58;7.77;;;3.33;;
8337;SDS011;4206;48.634;9.516;2023-04-07T14:27:25;5.70;;;3.10;;
8337;SDS011;4206;48.634;9.516;2023-04-07T14:29:56;4.50;;;3.00;;
8337;SDS011;4206;48.634;9.516;2023-04-07T14:32:25;4.03;;;2.97;;
8337;SDS011;4206;48.634;9.516;2023-04-07T14:34:55;4.43;;;3.10;;
8337;SDS011;4206;48.634;9.516;2023-04-07T14:37:24;4.47;;;2.90;;
8337;SDS011;4206;48.634;9.516;2023-04-07T14:39:54;7.07;;;3.40;;
8337;SDS011;4206;48.634;9.516;2023-04-07T14:42:24;4.20;;;3.13;;
8337;SDS011;4206;48.634;9.516;2023-04-07T14:44:51;5.37;;;3.03;;
8337;SDS011;4206;48.634;9.516;2023-04-07T14:47:18;3.50;;;2.63;;
8337;SDS011;4206;48.634;9.516;2023-04-07T14:49:45;8.80;;;2.73;;
8337;SDS011;4206;48.634;9.516;2023-04-07T14:52:12;5.03;;;2.93;;
8337;SDS011;4206;48.634;9.516;2023-04-07T14:54:39;4.80;;;3.20;;
8337;SDS011;4206;48.634;9.516;2023-04-07T14:57:08;7.87;;;5.03;;
8337;SDS011;4206;48.634;9.516;2023-04-07T14:59:36;12.70;;;5.50;;
8337;SDS011;4206;48.634;9.516;2023-04-07T15:02:03;8.00;;;4.80;;
8337;SDS011;4206;48.634;9.516;2023-04-07T15:04:30;8.90;;;3.83;;
8337;SDS011;4206;48.634;9.516;2023-04-07T15:06:57;3.70;;;2.57;;
8337;SDS011;4206;48.634;9.516;2023-04-07T15:09:24;2.17;;;1.97;;
8337;SDS011;4206;48.634;9.516;2023-04-07T15:11:51;4.07;;;2.80;;
8337;SDS011;4206;48.634;9.516;2023-04-07T15:14:18;6.23;;;2.33;;
8337;SDS011;4206;48.634;9.516;2023-04-07T15:16:45;4.10;;;2.43;;
8337;SDS011;4206;48.634;9.516;2023-04-07T15:19:15;4.97;;;2.70;;
8337;SDS011;4206;48.634;9.516;2023-04-07T15:21:42;8.40;;;3.30;;
8337;SDS011;4206;48.634;9.516;2023-04-07T15:24:09;5.60;;;2.27;;
8337;SDS011;4206;48.634;9.516;2023-04-07T15:26:36;5.80;;;2.57;;
8337;SDS011;4206;48.634;9.516;2023-04-07T15:29:03;9.13;;;4.90;;
8337;SDS011;4206;48.634;9.516;2023-04-07T15:31:29;6.13;;;3.10;;
8337;SDS011;4206;48.634;9.516;2023-04-07T15:33:56;6.33;;;4.07;;
8337;SDS011;4206;48.634;9.516;2023-04-07T15:36:23;6.57;;;4.13;;
8337;SDS011;4206;48.634;9.516;2023-04-07T15:38:51;4.90;;;2.90;;
8337;SDS011;4206;48.634;9.516;2023-04-07T15:41:18;4.50;;;2.47;;
8337;SDS011;4206;48.634;9.516;2023-04-07T15:43:44;12.90;;;2.97;;
8337;SDS011;4206;48.634;9.516;2023-04-07T15:46:12;3.43;;;2.33;;
8337;SDS011;4206;48.634;9.516;2023-04-07T15:48:38;3.80;;;1.83;;
8337;SDS011;4206;48.634;9.516;2023-04-07T15:51:05;4.27;;;2.33;;
8337;SDS011;4206;48.634;9.516;2023-04-07T15:53:32;3.90;;;2.40;;
8337;SDS011;4206;48.634;9.516;2023-04-07T15:55:59;3.60;;;2.10;;
8337;SDS011;4206;48.634;9.516;2023-04-07T15:58:26;5.67;;;2.73;;
8337;SDS011;4206;48.634;9.516;2023-04-07T16:00:53;3.23;;;2.37;;
8337;SDS011;4206;48.634;9.516;2023-04-07T16:03:20;5.80;;;2.67;;
8337;SDS011;4206;48.634;9.516;2023-04-07T16:05:47;3.90;;;2.90;;
8337;SDS011;4206;48.634;9.516;2023-04-07T16:08:16;5.93;;;2.57;;
8337;SDS011;4206;48.634;9.516;2023-04-07T16:10:43;4.30;;;2.40;;
8337;SDS011;4206;48.634;9.516;2023-04-07T16:13:10;3.40;;;2.03;;
8337;SDS011;4206;48.634;9.516;2023-04-07T16:15:37;2.30;;;1.70;;
8337;SDS011;4206;48.634;9.516;2023-04-07T16:18:08;5.30;;;2.60;;
8337;SDS011;4206;48.634;9.516;2023-04-07T16:20:37;5.80;;;3.33;;
8337;SDS011;4206;48.634;9.516;2023-04-07T16:23:04;10.77;;;6.13;;
8337;SDS011;4206;48.634;9.516;2023-04-07T16:25:31;4.63;;;3.20;;
8337;SDS011;4206;48.634;9.516;2023-04-07T16:27:57;4.13;;;2.20;;
8337;SDS011;4206;48.634;9.516;2023-04-07T16:30:24;2.63;;;2.00;;
8337;SDS011;4206;48.634;9.516;2023-04-07T16:32:51;3.67;;;2.03;;
8337;SDS011;4206;48.634;9.516;2023-04-07T16:35:18;4.27;;;2.10;;
8337;SDS011;4206;48.634;9.516;2023-04-07T16:37:45;4.23;;;2.20;;
8337;SDS011;4206;48.634;9.516;2023-04-07T16:40:12;2.70;;;2.20;;
8337;SDS011;4206;48.634;9.516;2023-04-07T16:42:39;4.43;;;2.67;;
8337;SDS011;4206;48.634;9.516;2023-04-07T16:45:06;6.30;;;3.50;;
8337;SDS011;4206;48.634;9.516;2023-04-07T16:47:34;10.63;;;4.10;;
8337;SDS011;4206;48.634;9.516;2023-04-07T16:50:01;10.80;;;4.00;;
8337;SDS011;4206;48.634;9.516;2023-04-07T16:52:29;6.70;;;2.60;;
8337;SDS011;4206;48.634;9.516;2023-04-07T16:54:56;4.87;;;2.77;;
8337;SDS011;4206;48.634;9.516;2023-04-07T16:57:24;7.00;;;3.07;;
8337;SDS011;4206;48.634;9.516;2023-04-07T16:59:51;7.83;;;2.93;;
8337;SDS011;4206;48.634;9.516;2023-04-07T17:02:18;8.03;;;3.10;;
8337;SDS011;4206;48.634;9.516;2023-04-07T17:04:45;7.27;;;3.37;;
8337;SDS011;4206;48.634;9.516;2023-04-07T17:07:12;5.70;;;2.97;;
8337;SDS011;4206;48.634;9.516;2023-04-07T17:09:39;4.33;;;3.07;;
8337;SDS011;4206;48.634;9.516;2023-04-07T17:12:06;3.90;;;3.03;;